Time;durP1;ratioP1;P1;durP2;ratioP2;P2;SDS_P1;SDS_P2;PMS_P1;PMS_P2;Temp;Humidity;BMP_temperature;BMP_pressure;BME280_temperature;BME280_humidity;BME280_pressure;Samples;Min_cycle;Max_cycle;Signal;HPM_P1;HPM_P2
2022/05/10 00:00:26;;;;;;;13.57;10.20;;;11.30;99.90;;;;;;5073440;28;20936;-59
2022/05/10 00:02:55;;;;;;;12.20;9.77;;;11.20;99.90;;;;;;5085637;28;20463;-58
2022/05/10 00:05:27;;;;;;;11.03;9.83;;;11.20;99.90;;;;;;5083741;28;20272;-57
2022/05/10 00:07:55;;;;;;;12.87;9.73;;;11.10;99.90;;;;;;5081866;28;20783;-58
2022/05/10 00:10:21;;;;;;;15.03;11.07;;;11.20;99.90;;;;;;5066139;28;20511;-58
2022/05/10 00:12:46;;;;;;;15.40;9.97;;;11.20;99.90;;;;;;5085359;28;20531;-59
2022/05/10 00:15:13;;;;;;;12.87;10.20;;;11.10;99.90;;;;;;5080660;28;20208;-58
2022/05/10 00:17:41;;;;;;;12.10;9.80;;;11.10;99.90;;;;;;5069097;28;20675;-57
2022/05/10 00:20:10;;;;;;;14.20;10.17;;;11.10;99.90;;;;;;5073723;28;20773;-58
2022/05/10 00:22:36;;;;;;;12.53;10.10;;;11.10;99.90;;;;;;5056875;28;20459;-58
2022/05/10 00:25:03;;;;;;;14.03;10.20;;;11.10;99.90;;;;;;5080093;28;20889;-58
2022/05/10 00:27:29;;;;;;;13.07;10.60;;;11.10;99.90;;;;;;5080984;28;20523;-58
2022/05/10 00:29:55;;;;;;;10.67;9.50;;;11.00;99.90;;;;;;5084411;28;20961;-58
2022/05/10 00:32:31;;;;;;;15.93;10.70;;;11.00;99.90;;;;;;5074104;28;20206;-58
2022/05/10 00:34:57;;;;;;;21.70;10.50;;;11.00;99.90;;;;;;5077241;28;20246;-59
2022/05/10 00:37:23;;;;;;;14.03;9.70;;;11.00;99.90;;;;;;5078386;28;20917;-59
2022/05/10 00:39:49;;;;;;;12.20;9.87;;;11.00;99.90;;;;;;5082060;28;20181;-59
2022/05/10 00:42:37;;;;;;;12.43;9.40;;;10.90;99.90;;;;;;5071827;28;20469;-58
2022/05/10 00:45:15;;;;;;;14.57;10.20;;;10.90;99.90;;;;;;5076235;28;20178;-58
2022/05/10 00:48:00;;;;;;;13.57;10.00;;;10.80;99.90;;;;;;5057630;28;20492;-59
2022/05/10 00:50:41;;;;;;;14.80;10.20;;;10.80;99.90;;;;;;5071615;28;20531;-58
2022/05/10 00:53:21;;;;;;;13.13;10.20;;;10.80;99.90;;;;;;5079485;28;20539;-58
2022/05/10 00:56:11;;;;;;;15.83;10.13;;;10.80;99.90;;;;;;5062975;28;20506;-58
2022/05/10 00:58:36;;;;;;;14.50;9.90;;;10.70;99.90;;;;;;5078631;28;20520;-58
2022/05/10 01:01:04;;;;;;;13.70;10.07;;;10.70;99.90;;;;;;5073340;28;20508;-59
2022/05/10 01:03:49;;;;;;;13.83;10.67;;;10.60;99.90;;;;;;5072944;28;20217;-58
2022/05/10 01:06:28;;;;;;;14.47;9.77;;;10.60;99.90;;;;;;5073994;28;20435;-58
2022/05/10 01:09:16;;;;;;;13.03;10.13;;;10.60;99.90;;;;;;5064507;28;20512;-58
2022/05/10 01:11:50;;;;;;;16.17;9.93;;;10.60;99.90;;;;;;5074013;28;20494;-58
2022/05/10 01:14:22;;;;;;;15.97;10.73;;;10.50;99.90;;;;;;5070648;28;20444;-59
2022/05/10 01:16:48;;;;;;;13.13;10.13;;;10.50;99.90;;;;;;5071148;28;20500;-58
2022/05/10 01:19:15;;;;;;;14.60;10.10;;;10.50;99.90;;;;;;5072343;28;20906;-58
2022/05/10 01:21:49;;;;;;;14.83;10.13;;;10.50;99.90;;;;;;5072105;28;20467;-59
2022/05/10 01:24:53;;;;;;;14.03;10.47;;;10.50;99.90;;;;;;5056682;28;20440;-58
2022/05/10 01:27:33;;;;;;;12.40;10.30;;;10.40;99.90;;;;;;5072277;28;20444;-59
2022/05/10 01:30:03;;;;;;;14.13;10.33;;;10.40;99.90;;;;;;5074925;28;20598;-58
2022/05/10 01:35:52;;;;;;;16.37;10.17;;;10.30;99.90;;;;;;5056943;28;20426;-57
2022/05/10 01:38:36;;;;;;;13.03;10.27;;;10.20;99.90;;;;;;5072506;22;20488;-59
2022/05/10 01:41:11;;;;;;;14.70;10.30;;;10.20;99.90;;;;;;5048768;28;20495;-59
2022/05/10 01:43:45;;;;;;;15.67;10.97;;;10.20;99.90;;;;;;5036519;28;20544;-59
2022/05/10 01:46:23;;;;;;;12.80;10.30;;;10.20;99.90;;;;;;5041215;28;20456;-60
2022/05/10 01:48:54;;;;;;;16.13;10.77;;;10.20;99.90;;;;;;5048266;28;20453;-60
2022/05/10 01:51:26;;;;;;;14.20;11.43;;;10.10;99.90;;;;;;5043576;28;20778;-59
2022/05/10 01:53:53;;;;;;;12.37;10.37;;;10.10;99.90;;;;;;5043906;28;20450;-60
2022/05/10 01:56:30;;;;;;;15.90;10.93;;;10.10;99.90;;;;;;5043897;28;20437;-60
2022/05/10 01:58:57;;;;;;;14.73;11.27;;;10.10;99.90;;;;;;5042204;28;20468;-60
2022/05/10 02:01:34;;;;;;;14.27;10.27;;;10.10;99.90;;;;;;5044106;28;20469;-59
2022/05/10 02:04:12;;;;;;;13.10;10.43;;;10.00;99.90;;;;;;5037385;28;20434;-59
2022/05/10 02:06:48;;;;;;;14.40;10.70;;;10.00;99.90;;;;;;5042527;28;20433;-58
2022/05/10 02:09:21;;;;;;;15.57;10.13;;;10.00;99.90;;;;;;5045098;28;20468;-59
2022/05/10 02:12:16;;;;;;;12.40;10.43;;;10.00;99.90;;;;;;5043170;28;20425;-59
2022/05/10 02:14:51;;;;;;;14.50;10.30;;;9.90;99.90;;;;;;5040661;28;20479;-59
2022/05/10 02:17:27;;;;;;;12.80;10.53;;;9.90;99.90;;;;;;5036419;28;20418;-60
2022/05/10 02:20:05;;;;;;;13.00;10.73;;;9.90;99.90;;;;;;5045788;28;20425;-59
2022/05/10 02:22:46;;;;;;;14.63;10.47;;;9.90;99.90;;;;;;5042599;28;20429;-60
2022/05/10 02:25:17;;;;;;;13.10;9.87;;;9.80;99.90;;;;;;5045803;28;20453;-59
2022/05/10 02:27:51;;;;;;;13.70;10.10;;;9.80;99.90;;;;;;5043193;28;20498;-59
2022/05/10 02:30:21;;;;;;;12.53;9.80;;;9.80;99.90;;;;;;5039352;28;20461;-59
2022/05/10 02:33:09;;;;;;;13.03;10.10;;;9.70;99.90;;;;;;5038537;28;20437;-58
2022/05/10 02:35:49;;;;;;;16.13;10.47;;;9.70;99.90;;;;;;5039328;28;20460;-60
2022/05/10 02:38:21;;;;;;;14.73;11.00;;;9.70;99.90;;;;;;5043363;28;20485;-60
2022/05/10 02:40:47;;;;;;;12.60;10.50;;;9.60;99.90;;;;;;5043723;28;20438;-59
2022/05/10 02:43:24;;;;;;;13.20;10.73;;;9.60;99.90;;;;;;5049587;28;20417;-60
2022/05/10 02:45:50;;;;;;;16.70;11.30;;;9.60;99.90;;;;;;5045170;28;20602;-59
2022/05/10 02:48:30;;;;;;;14.63;11.63;;;9.60;99.90;;;;;;5045861;28;20461;-60
2022/05/10 02:50:57;;;;;;;16.37;11.00;;;9.60;99.90;;;;;;5039106;28;20424;-59
2022/05/10 02:53:23;;;;;;;18.10;12.30;;;9.60;99.90;;;;;;5046938;28;20549;-60
2022/05/10 02:55:54;;;;;;;15.07;10.70;;;9.60;99.90;;;;;;5044673;28;21133;-60
2022/05/10 02:58:26;;;;;;;12.67;10.47;;;9.60;99.90;;;;;;5041801;28;20241;-60
2022/05/10 03:00:58;;;;;;;12.97;10.60;;;9.60;99.90;;;;;;5039560;28;20515;-59
2022/05/10 03:03:26;;;;;;;14.07;10.90;;;9.60;99.90;;;;;;5044029;28;20430;-59
2022/05/10 03:05:53;;;;;;;13.83;10.93;;;9.50;99.90;;;;;;5044042;28;20436;-59
2022/05/10 03:08:19;;;;;;;13.80;9.97;;;9.50;99.90;;;;;;5043689;28;20933;-60
2022/05/10 03:10:44;;;;;;;12.93;10.53;;;9.50;99.90;;;;;;5043655;28;20513;-60
2022/05/10 03:13:10;;;;;;;14.43;10.70;;;9.50;99.90;;;;;;5043196;28;20172;-60
2022/05/10 03:15:36;;;;;;;15.80;10.47;;;9.50;99.90;;;;;;5039257;28;20719;-59
2022/05/10 03:18:01;;;;;;;13.67;10.47;;;9.40;99.90;;;;;;5040044;28;20193;-59
2022/05/10 03:20:27;;;;;;;14.20;10.90;;;9.40;99.90;;;;;;5039260;28;20179;-59
2022/05/10 03:22:54;;;;;;;14.50;11.00;;;9.40;99.90;;;;;;5036240;28;20174;-58
2022/05/10 03:25:20;;;;;;;15.40;10.60;;;9.30;99.90;;;;;;5043707;28;20213;-59
2022/05/10 03:27:47;;;;;;;14.27;10.90;;;9.30;99.90;;;;;;5044341;28;20480;-60
2022/05/10 03:30:13;;;;;;;18.73;11.30;;;9.30;99.90;;;;;;5042267;28;20516;-60
2022/05/10 03:32:39;;;;;;;15.83;11.40;;;9.30;99.90;;;;;;5045151;28;20421;-60
2022/05/10 03:35:05;;;;;;;14.90;11.00;;;9.30;99.90;;;;;;5041906;28;20425;-59
2022/05/10 03:37:31;;;;;;;11.37;9.93;;;9.20;99.90;;;;;;5043234;28;20202;-60
2022/05/10 03:39:59;;;;;;;13.80;10.40;;;9.20;99.90;;;;;;5041894;28;20433;-60
2022/05/10 03:42:25;;;;;;;18.97;10.90;;;9.20;99.90;;;;;;5042026;28;20863;-60
2022/05/10 03:44:54;;;;;;;17.50;10.73;;;9.10;99.90;;;;;;5037296;28;20445;-59
2022/05/10 03:47:26;;;;;;;18.23;10.80;;;9.10;99.90;;;;;;5034302;28;20438;-59
2022/05/10 03:49:53;;;;;;;14.20;10.63;;;9.10;99.90;;;;;;5038824;28;21003;-59
2022/05/10 03:52:19;;;;;;;15.67;10.83;;;9.10;99.90;;;;;;5036927;28;20421;-59
2022/05/10 03:54:45;;;;;;;16.33;11.97;;;9.10;99.90;;;;;;5038179;28;20967;-59
2022/05/10 03:57:11;;;;;;;16.20;11.13;;;9.00;99.90;;;;;;5041096;28;20186;-58
2022/05/10 03:59:41;;;;;;;18.10;12.07;;;9.00;99.90;;;;;;5037458;28;20479;-59
2022/05/10 04:02:08;;;;;;;15.00;11.13;;;9.00;99.90;;;;;;5047648;28;20440;-59
2022/05/10 04:04:34;;;;;;;14.17;11.60;;;9.10;99.90;;;;;;5044364;28;20950;-58
2022/05/10 04:07:00;;;;;;;13.73;11.20;;;9.10;99.90;;;;;;5032762;28;20439;-58
2022/05/10 04:09:25;;;;;;;13.47;10.60;;;9.10;99.90;;;;;;5034270;28;20206;-57
2022/05/10 04:11:51;;;;;;;12.17;9.90;;;9.10;99.90;;;;;;5038289;28;20171;-59
2022/05/10 04:14:17;;;;;;;13.40;10.90;;;9.10;99.90;;;;;;5029919;28;20233;-58
2022/05/10 04:16:42;;;;;;;17.17;11.50;;;9.10;99.90;;;;;;5033508;28;20228;-58
2022/05/10 04:19:09;;;;;;;14.90;11.50;;;9.10;99.90;;;;;;5033497;28;20206;-58
2022/05/10 04:21:35;;;;;;;17.23;12.30;;;9.10;99.90;;;;;;5031517;28;20183;-59
2022/05/10 04:24:00;;;;;;;18.20;11.60;;;9.10;99.90;;;;;;5032421;28;20444;-59
2022/05/10 04:26:26;;;;;;;16.37;12.00;;;9.10;99.90;;;;;;5035130;28;20183;-58
2022/05/10 04:28:54;;;;;;;14.80;10.83;;;9.10;99.90;;;;;;5038267;28;20798;-58
2022/05/10 04:31:20;;;;;;;14.17;10.57;;;9.10;99.90;;;;;;5038891;28;20431;-58
2022/05/10 04:33:45;;;;;;;14.23;10.90;;;9.10;99.90;;;;;;5035476;28;20433;-58
2022/05/10 04:36:11;;;;;;;14.17;11.53;;;9.10;99.90;;;;;;5035740;28;20179;-59
2022/05/10 04:38:37;;;;;;;17.13;11.57;;;9.10;99.90;;;;;;5038748;28;20941;-60
2022/05/10 04:43:48;;;;;;;14.23;10.60;;;9.10;99.90;;;;;;5035517;28;20202;-58
2022/05/10 04:46:13;;;;;;;12.87;10.03;;;9.10;99.90;;;;;;5035071;28;20520;-60
2022/05/10 04:48:39;;;;;;;13.30;10.40;;;9.10;99.90;;;;;;5037947;28;21023;-58
2022/05/10 04:51:06;;;;;;;15.90;11.40;;;9.10;99.90;;;;;;5035266;28;20241;-59
2022/05/10 04:53:32;;;;;;;16.00;11.00;;;9.10;99.90;;;;;;5048154;28;20179;-59
2022/05/10 04:55:58;;;;;;;18.47;12.20;;;9.20;99.90;;;;;;5033653;28;20425;-59
2022/05/10 04:58:23;;;;;;;18.93;11.70;;;9.20;99.90;;;;;;5036396;28;20912;-58
2022/05/10 05:00:49;;;;;;;21.53;13.57;;;9.20;99.90;;;;;;5035526;28;20180;-60
2022/05/10 05:03:15;;;;;;;17.53;11.97;;;9.30;99.90;;;;;;5038328;28;20175;-60
2022/05/10 05:05:40;;;;;;;18.17;11.43;;;9.30;99.90;;;;;;5034918;28;20171;-59
2022/05/10 05:08:06;;;;;;;18.10;12.00;;;9.40;99.90;;;;;;5059900;28;20202;-59
2022/05/10 05:10:32;;;;;;;18.00;13.47;;;9.50;99.90;;;;;;5040976;28;20598;-58
2022/05/10 05:12:58;;;;;;;21.30;18.80;;;9.50;99.90;;;;;;5043783;28;20190;-57
2022/05/10 05:15:24;;;;;;;19.20;15.27;;;9.60;99.90;;;;;;5041020;28;20246;-56
2022/05/10 05:17:50;;;;;;;16.60;14.37;;;9.70;99.90;;;;;;5033715;28;20426;-57
2022/05/10 05:20:15;;;;;;;20.47;13.10;;;9.80;99.90;;;;;;5050101;28;20426;-57
2022/05/10 05:22:41;;;;;;;18.87;12.37;;;9.90;99.90;;;;;;5044828;28;20822;-60
2022/05/10 05:25:07;;;;;;;18.57;13.33;;;9.90;99.90;;;;;;5039290;28;20710;-58
2022/05/10 05:27:33;;;;;;;17.37;13.03;;;10.00;99.90;;;;;;5049832;28;20206;-59
2022/05/10 05:29:59;;;;;;;19.40;12.20;;;10.10;99.90;;;;;;5052896;28;20453;-58
2022/05/10 05:32:29;;;;;;;19.17;12.87;;;10.20;99.90;;;;;;5047856;28;20175;-59
2022/05/10 05:34:58;;;;;;;16.43;11.83;;;10.30;99.90;;;;;;5047250;28;20437;-59
2022/05/10 05:37:33;;;;;;;13.80;11.23;;;10.30;99.90;;;;;;5052832;28;20922;-60
2022/05/10 05:40:00;;;;;;;15.70;10.40;;;10.40;99.90;;;;;;5049225;28;20433;-58
2022/05/10 05:42:25;;;;;;;14.80;11.47;;;10.50;99.90;;;;;;5046616;28;20930;-60
2022/05/10 05:44:51;;;;;;;14.10;10.80;;;10.50;99.90;;;;;;5039539;28;20457;-59
2022/05/10 05:47:17;;;;;;;15.23;12.00;;;10.60;99.90;;;;;;5046863;28;20253;-59
2022/05/10 05:49:43;;;;;;;17.63;11.80;;;10.70;99.90;;;;;;5051667;28;20345;-59
2022/05/10 05:52:09;;;;;;;16.07;11.40;;;10.80;99.90;;;;;;5050882;28;20433;-59
2022/05/10 05:54:34;;;;;;;18.00;12.00;;;10.90;99.90;;;;;;5049696;28;20436;-59
2022/05/10 05:57:06;;;;;;;24.23;12.63;;;11.00;99.90;;;;;;5051488;28;20601;-59
2022/05/10 05:59:33;;;;;;;16.70;12.33;;;11.00;99.90;;;;;;5047771;28;20187;-58
2022/05/10 06:01:59;;;;;;;18.90;12.47;;;11.10;99.90;;;;;;5048886;28;20434;-59
2022/05/10 06:04:25;;;;;;;19.30;11.97;;;11.20;99.90;;;;;;5051027;28;20432;-60
2022/05/10 06:06:50;;;;;;;15.73;11.73;;;11.30;99.90;;;;;;5047994;28;20236;-59
2022/05/10 06:09:22;;;;;;;21.20;12.80;;;11.30;99.90;;;;;;5048175;28;20207;-58
2022/05/10 06:11:49;;;;;;;14.97;11.90;;;11.40;99.90;;;;;;5052315;28;20167;-59
2022/05/10 06:14:15;;;;;;;19.20;13.03;;;11.50;99.90;;;;;;5051063;28;20426;-59
2022/05/10 06:16:41;;;;;;;17.47;12.80;;;11.50;99.90;;;;;;5051864;28;20443;-58
2022/05/10 06:19:11;;;;;;;24.80;14.23;;;11.60;99.90;;;;;;5050664;28;20228;-59
2022/05/10 06:21:37;;;;;;;20.60;12.80;;;11.80;99.90;;;;;;5052348;28;20414;-60
2022/05/10 06:24:03;;;;;;;22.90;14.10;;;11.90;99.90;;;;;;5049238;28;20517;-59
2022/05/10 06:26:29;;;;;;;23.40;14.83;;;12.00;99.90;;;;;;5043948;28;20210;-57
2022/05/10 06:28:54;;;;;;;28.33;14.70;;;12.10;99.90;;;;;;5048996;28;20493;-59
2022/05/10 06:31:20;;;;;;;21.27;14.60;;;12.20;99.90;;;;;;5051087;28;20195;-59
2022/05/10 06:33:46;;;;;;;20.27;13.80;;;12.30;99.90;;;;;;5049935;28;20180;-60
2022/05/10 06:36:11;;;;;;;20.00;14.70;;;12.40;99.90;;;;;;5041622;28;20183;-58
2022/05/10 06:38:37;;;;;;;20.77;13.80;;;12.50;99.90;;;;;;5040755;28;20223;-59
2022/05/10 06:41:04;;;;;;;25.53;15.00;;;12.60;99.90;;;;;;5052176;28;20171;-59
2022/05/10 06:43:35;;;;;;;32.07;15.23;;;12.70;99.90;;;;;;5040893;28;20191;-60
2022/05/10 06:46:13;;;;;;;38.23;15.83;;;12.80;99.90;;;;;;5049969;28;20437;-59
2022/05/10 06:48:39;;;;;;;23.30;14.57;;;12.80;99.90;;;;;;5050454;28;21024;-59
2022/05/10 06:51:09;;;;;;;33.67;16.80;;;12.90;99.90;;;;;;5050918;28;20430;-59
2022/05/10 06:53:36;;;;;;;41.97;18.93;;;13.00;99.90;;;;;;5049530;28;21063;-59
2022/05/10 06:56:02;;;;;;;40.50;21.00;;;13.10;99.90;;;;;;5049875;28;20454;-59
2022/05/10 06:58:28;;;;;;;27.30;18.50;;;13.20;99.90;;;;;;5047459;28;20450;-59
2022/05/10 07:00:54;;;;;;;30.40;19.97;;;13.30;99.90;;;;;;5044412;28;20826;-59
2022/05/10 07:03:28;;;;;;;37.53;20.40;;;13.40;99.90;;;;;;5046543;28;20508;-59
2022/05/10 07:05:54;;;;;;;31.63;21.13;;;13.50;99.90;;;;;;5051119;28;20179;-59
2022/05/10 07:08:20;;;;;;;28.60;20.20;;;13.60;99.90;;;;;;5048413;28;20477;-59
2022/05/10 07:10:46;;;;;;;26.00;18.33;;;13.70;99.90;;;;;;5051036;28;20426;-60
2022/05/10 07:13:21;;;;;;;27.50;18.33;;;13.90;99.90;;;;;;5051277;28;20432;-58
2022/05/10 07:15:47;;;;;;;25.97;17.90;;;14.00;99.90;;;;;;5048222;28;20181;-59
2022/05/10 07:18:13;;;;;;;28.10;18.03;;;14.20;99.90;;;;;;5042235;28;20456;-59
2022/05/10 07:20:40;;;;;;;26.80;18.40;;;14.20;99.90;;;;;;5046802;28;20441;-59
2022/05/10 07:23:06;;;;;;;29.60;18.57;;;14.40;99.90;;;;;;5043638;28;20950;-59
2022/05/10 07:25:32;;;;;;;34.63;20.20;;;14.50;99.90;;;;;;5048830;28;20441;-60
2022/05/10 07:27:58;;;;;;;34.43;20.53;;;14.70;99.90;;;;;;5045228;28;20576;-60
2022/05/10 07:30:26;;;;;;;31.87;21.83;;;14.90;99.90;;;;;;5044603;28;20175;-59
2022/05/10 07:32:52;;;;;;;37.23;22.50;;;15.00;99.80;;;;;;5049907;28;20440;-59
2022/05/10 07:38:05;;;;;;;30.93;20.47;;;15.30;97.80;;;;;;5047763;28;20315;-59
2022/05/10 07:40:31;;;;;;;28.60;20.03;;;15.50;96.00;;;;;;5049383;28;20802;-59
2022/05/10 07:42:57;;;;;;;31.07;18.73;;;15.60;95.10;;;;;;5049597;28;20432;-61
2022/05/10 07:45:22;;;;;;;24.70;19.13;;;15.80;93.30;;;;;;5107146;22;20327;-58
2022/05/10 07:47:48;;;;;;;26.00;18.33;;;15.90;91.70;;;;;;5084056;28;20173;-58
2022/05/10 07:50:14;;;;;;;24.30;17.67;;;16.00;91.70;;;;;;5083788;28;20346;-58
2022/05/10 07:52:40;;;;;;;20.10;15.13;;;16.20;92.60;;;;;;5086160;28;20796;-59
2022/05/10 07:55:08;;;;;;;21.07;14.00;;;16.40;93.80;;;;;;5085377;28;20288;-59
2022/05/10 07:57:33;;;;;;;22.83;15.13;;;16.50;92.30;;;;;;5086367;28;20859;-58
2022/05/10 07:59:59;;;;;;;16.53;13.00;;;16.70;93.40;;;;;;5071793;28;20480;-58
2022/05/10 08:02:25;;;;;;;13.00;10.60;;;16.80;92.70;;;;;;5086284;28;20189;-57
2022/05/10 08:04:50;;;;;;;13.50;9.73;;;17.00;90.70;;;;;;5085540;28;20186;-58
2022/05/10 08:07:16;;;;;;;10.97;9.57;;;17.10;89.10;;;;;;5082834;28;20182;-58
2022/05/10 08:09:41;;;;;;;11.60;10.07;;;17.30;88.20;;;;;;5066342;28;20312;-59
2022/05/10 08:12:08;;;;;;;13.47;9.70;;;17.40;82.70;;;;;;5085999;28;20249;-58
2022/05/10 08:14:34;;;;;;;14.73;10.10;;;17.50;82.80;;;;;;5083043;28;20208;-58
2022/05/10 08:16:59;;;;;;;11.90;8.93;;;17.60;84.80;;;;;;5086384;28;20412;-58
2022/05/10 08:19:25;;;;;;;11.33;8.60;;;17.80;82.60;;;;;;5086400;28;20254;-59
2022/05/10 08:21:55;;;;;;;10.33;8.40;;;17.80;78.00;;;;;;5084461;28;20270;-59
2022/05/10 08:24:22;;;;;;;8.30;7.40;;;18.00;73.80;;;;;;5082895;28;20193;-59
2022/05/10 08:26:47;;;;;;;10.03;7.67;;;18.10;69.30;;;;;;5084993;28;20419;-58
2022/05/10 08:29:13;;;;;;;11.43;8.43;;;18.10;66.00;;;;;;5085221;28;20539;-58
2022/05/10 08:31:40;;;;;;;14.03;9.13;;;18.20;66.00;;;;;;5082949;28;20176;-58
2022/05/10 08:34:06;;;;;;;9.63;8.33;;;18.30;65.40;;;;;;5082401;28;20225;-59
2022/05/10 08:36:32;;;;;;;13.10;8.00;;;18.50;64.60;;;;;;5084660;28;20535;-57
2022/05/10 08:38:57;;;;;;;9.43;6.97;;;18.60;65.20;;;;;;5082599;28;20524;-58
2022/05/10 08:41:48;;;;;;;9.00;7.53;;;18.80;64.30;;;;;;5078216;28;20627;-58
2022/05/10 08:44:17;;;;;;;8.03;6.97;;;18.80;60.90;;;;;;5082188;28;20201;-57
2022/05/10 08:46:46;;;;;;;12.47;6.73;;;18.90;60.80;;;;;;5082744;28;20427;-59
2022/05/10 08:49:32;;;;;;;9.60;7.33;;;19.00;61.20;;;;;;5083100;28;20788;-58
2022/05/10 08:51:58;;;;;;;9.07;6.90;;;19.20;59.30;;;;;;5084209;28;20999;-57
2022/05/10 08:54:26;;;;;;;8.63;7.23;;;19.30;59.70;;;;;;5083623;28;20423;-58
2022/05/10 08:56:56;;;;;;;8.87;6.90;;;19.30;59.00;;;;;;5080098;28;20874;-58
2022/05/10 08:59:42;;;;;;;8.00;7.20;;;19.30;58.60;;;;;;5084824;28;20421;-58
2022/05/10 09:02:15;;;;;;;8.70;7.07;;;19.20;58.30;;;;;;5085545;28;20600;-58
2022/05/10 09:04:53;;;;;;;10.30;6.53;;;19.00;58.70;;;;;;5082297;28;20440;-57
2022/05/10 09:07:34;;;;;;;10.73;7.00;;;18.90;58.50;;;;;;5085379;28;20424;-57
2022/05/10 09:10:37;;;;;;;7.13;6.40;;;18.80;58.80;;;;;;5083966;28;20463;-58
2022/05/10 09:13:05;;;;;;;7.20;6.50;;;18.80;59.40;;;;;;5084619;28;20424;-56
2022/05/10 09:15:37;;;;;;;10.07;7.40;;;19.10;59.90;;;;;;5082553;28;20451;-57
2022/05/10 09:18:14;;;;;;;12.10;7.00;;;19.30;57.10;;;;;;5083995;28;20415;-58
2022/05/10 09:21:06;;;;;;;9.90;6.37;;;19.50;57.50;;;;;;5083869;28;20453;-58
2022/05/10 09:23:58;;;;;;;10.43;7.57;;;19.50;57.40;;;;;;5067091;28;20765;-58
2022/05/10 09:26:30;;;;;;;8.60;6.80;;;19.40;57.80;;;;;;5072076;28;20542;-59
2022/05/10 09:29:22;;;;;;;11.40;7.20;;;19.30;58.50;;;;;;5076258;28;20584;-59
2022/05/10 09:34:47;;;;;;;9.00;6.90;;;19.20;58.40;;;;;;5082504;28;20624;-60
2022/05/10 09:37:17;;;;;;;8.30;7.40;;;19.20;58.80;;;;;;5085092;28;20759;-58
2022/05/10 09:40:09;;;;;;;9.67;6.80;;;19.30;59.80;;;;;;5082386;28;21002;-58
2022/05/10 09:42:44;;;;;;;7.13;6.10;;;19.60;59.50;;;;;;5041162;28;20432;-58
2022/05/10 09:45:20;;;;;;;6.50;5.83;;;20.00;59.10;;;;;;5075965;28;20554;-59
2022/05/10 09:48:24;;;;;;;7.30;5.63;;;20.50;58.50;;;;;;5081506;28;20497;-59
2022/05/10 09:50:51;;;;;;;6.53;5.40;;;20.80;54.70;;;;;;4971147;28;20524;-59
2022/05/10 09:53:31;;;;;;;7.13;4.97;;;20.70;54.10;;;;;;5052371;28;20419;-58
2022/05/10 09:56:08;;;;;;;9.20;5.50;;;20.60;55.10;;;;;;5082680;28;20818;-59
2022/05/10 09:58:43;;;;;;;6.80;5.80;;;20.50;54.80;;;;;;5082056;28;20529;-59
2022/05/10 10:01:11;;;;;;;5.90;5.37;;;20.30;53.90;;;;;;5085358;28;20422;-58
2022/05/10 10:03:40;;;;;;;6.37;4.93;;;20.20;53.60;;;;;;5084125;28;20440;-58
2022/05/10 10:06:19;;;;;;;6.40;5.70;;;20.10;54.30;;;;;;5080249;28;20523;-58
2022/05/10 10:08:48;;;;;;;7.50;6.43;;;20.00;55.50;;;;;;5081454;28;20454;-59
2022/05/10 10:11:30;;;;;;;6.70;6.10;;;19.90;57.00;;;;;;5088369;28;20407;-57
2022/05/10 10:14:00;;;;;;;8.70;5.40;;;20.10;57.90;;;;;;5072349;28;20463;-58
2022/05/10 10:16:33;;;;;;;6.53;5.17;;;20.50;58.00;;;;;;5078648;28;20460;-60
2022/05/10 10:19:29;;;;;;;6.63;6.00;;;21.00;57.50;;;;;;5067119;28;20478;-59
2022/05/10 10:22:09;;;;;;;7.67;5.60;;;21.30;55.50;;;;;;5078937;28;21031;-59
2022/05/10 10:24:44;;;;;;;8.20;5.13;;;21.30;55.40;;;;;;5081202;28;20466;-59
2022/05/10 10:27:34;;;;;;;6.43;5.60;;;21.20;54.20;;;;;;5085285;28;20462;-59
2022/05/10 10:30:03;;;;;;;6.03;5.03;;;21.20;53.50;;;;;;5067467;28;20987;-61
2022/05/10 10:32:35;;;;;;;6.20;5.60;;;21.30;54.30;;;;;;5081642;28;20507;-61
2022/05/10 10:35:11;;;;;;;5.47;4.93;;;21.50;54.00;;;;;;5084434;28;20512;-60
2022/05/10 10:37:43;;;;;;;6.20;5.30;;;21.60;53.30;;;;;;5081663;28;20427;-60
2022/05/10 10:40:18;;;;;;;6.47;5.37;;;21.60;53.30;;;;;;5078287;28;20508;-60
2022/05/10 10:43:15;;;;;;;5.50;4.80;;;21.60;53.20;;;;;;5080906;28;20444;-59
2022/05/10 10:45:45;;;;;;;6.03;4.87;;;21.60;53.20;;;;;;5103334;28;20515;-59
2022/05/10 10:48:25;;;;;;;6.63;4.87;;;21.80;52.00;;;;;;5066630;28;20427;-59
2022/05/10 10:50:52;;;;;;;6.70;4.83;;;21.80;52.70;;;;;;5069495;28;20663;-60
2022/05/10 10:53:20;;;;;;;7.83;5.53;;;21.70;51.50;;;;;;5086956;28;20424;-60
2022/05/10 10:55:48;;;;;;;8.50;5.07;;;21.50;51.00;;;;;;5086759;28;20524;-59
2022/05/10 10:58:26;;;;;;;5.40;4.90;;;21.40;51.60;;;;;;5086591;28;20431;-59
2022/05/10 11:01:12;;;;;;;7.93;5.80;;;21.30;51.80;;;;;;5087642;28;20506;-60
2022/05/10 11:03:52;;;;;;;5.13;4.60;;;21.10;51.30;;;;;;5080817;28;20495;-60
2022/05/10 11:06:24;;;;;;;6.40;4.30;;;21.00;51.40;;;;;;5084031;28;20455;-60
2022/05/10 11:08:56;;;;;;;5.53;4.80;;;20.90;51.60;;;;;;5083381;28;20455;-60
2022/05/10 11:11:37;;;;;;;4.83;4.43;;;20.80;50.60;;;;;;5087118;28;20436;-60
2022/05/10 11:14:21;;;;;;;9.97;5.33;;;20.80;51.70;;;;;;5068858;28;20440;-60
2022/05/10 11:17:11;;;;;;;7.13;5.20;;;20.90;52.00;;;;;;5087312;28;20460;-59
2022/05/10 11:19:47;;;;;;;6.00;5.00;;;20.90;52.20;;;;;;5065948;28;20999;-59
2022/05/10 11:22:36;;;;;;;8.90;5.47;;;21.00;52.70;;;;;;5085793;28;20431;-59
2022/05/10 11:25:07;;;;;;;5.40;4.90;;;21.20;53.30;;;;;;5068343;28;20435;-58
2022/05/10 11:28:07;;;;;;;5.57;4.97;;;21.70;53.60;;;;;;5082214;28;20435;-59
2022/05/10 11:31:00;;;;;;;5.60;4.93;;;22.00;53.20;;;;;;5085734;28;20423;-59
2022/05/10 11:34:03;;;;;;;6.73;5.10;;;22.20;51.80;;;;;;5083472;28;20515;-59
2022/05/10 11:36:41;;;;;;;7.70;5.13;;;22.00;50.80;;;;;;5083457;28;20446;-60
2022/05/10 11:39:41;;;;;;;7.87;4.97;;;21.80;51.80;;;;;;5085008;28;20431;-57
2022/05/10 11:42:32;;;;;;;5.67;4.90;;;21.70;52.00;;;;;;5071547;28;20428;-58
2022/05/10 11:45:17;;;;;;;5.87;4.00;;;21.60;52.30;;;;;;5078600;28;20459;-59
2022/05/10 11:48:22;;;;;;;5.30;4.80;;;21.60;52.20;;;;;;5076475;28;20494;-58
2022/05/10 11:51:38;;;;;;;6.33;4.73;;;21.50;50.90;;;;;;5081883;28;20598;-58
2022/05/10 11:54:47;;;;;;;4.90;4.50;;;21.60;51.40;;;;;;5076505;28;20448;-58
2022/05/10 11:57:15;;;;;;;5.60;4.07;;;21.90;51.90;;;;;;5076715;28;20432;-57
2022/05/10 11:59:42;;;;;;;5.63;4.17;;;22.20;49.50;;;;;;5061049;28;20855;-58
2022/05/10 12:02:35;;;;;;;4.60;4.20;;;22.40;49.30;;;;;;5077254;28;20428;-59
2022/05/10 12:05:10;;;;;;;4.00;3.70;;;22.70;47.70;;;;;;5076126;28;20487;-59
2022/05/10 12:07:47;;;;;;;5.33;4.50;;;23.10;48.20;;;;;;5076941;28;20419;-59
2022/05/10 12:10:22;;;;;;;4.13;3.80;;;23.50;47.80;;;;;;5061450;28;20834;-59
2022/05/10 12:12:57;;;;;;;7.07;4.70;;;23.90;46.50;;;;;;5080668;28;20497;-59
2022/05/10 12:21:22;;;;;;;4.27;3.87;;;24.00;45.70;;;;;;5078396;28;20451;-59
2022/05/10 12:24:12;;;;;;;7.97;4.43;;;23.70;45.60;;;;;;5080297;28;20435;-59
2022/05/10 12:26:53;;;;;;;4.63;4.20;;;23.80;45.80;;;;;;5079646;28;20416;-58
2022/05/10 12:29:36;;;;;;;5.77;3.90;;;24.10;45.20;;;;;;5077758;28;20486;-58
2022/05/10 12:32:02;;;;;;;4.00;3.53;;;24.50;44.60;;;;;;5076653;28;20431;-57
2022/05/10 12:34:40;;;;;;;4.30;3.90;;;24.70;44.70;;;;;;5077038;28;20808;-57
2022/05/10 12:37:27;;;;;;;4.17;3.77;;;24.70;43.50;;;;;;5076945;28;20248;-58
2022/05/10 12:39:56;;;;;;;4.50;4.07;;;24.70;43.20;;;;;;5079448;28;20493;-59
2022/05/10 12:42:57;;;;;;;6.90;4.10;;;24.50;42.70;;;;;;5061238;28;20436;-57
2022/05/10 12:45:40;;;;;;;9.23;4.17;;;24.30;45.00;;;;;;5066255;28;20468;-58
2022/05/10 12:48:11;;;;;;;5.60;3.30;;;24.60;44.70;;;;;;5073092;28;20535;-58
2022/05/10 12:51:13;;;;;;;4.07;3.70;;;24.80;44.60;;;;;;5078581;28;20428;-58
2022/05/10 12:53:53;;;;;;;4.40;4.00;;;25.20;42.80;;;;;;5074339;28;20435;-57
2022/05/10 12:56:30;;;;;;;5.47;3.70;;;25.40;43.70;;;;;;5076014;28;20464;-60
2022/05/10 12:59:27;;;;;;;4.77;4.37;;;25.60;41.90;;;;;;5076502;28;20476;-57
2022/05/10 13:01:55;;;;;;;4.63;3.83;;;25.40;41.80;;;;;;5035482;28;20795;-57
2022/05/10 13:04:23;;;;;;;6.80;4.20;;;25.40;43.20;;;;;;5061044;28;21076;-57
2022/05/10 13:07:13;;;;;;;8.50;4.30;;;25.20;43.00;;;;;;5079834;28;20465;-57
2022/05/10 13:09:49;;;;;;;5.20;4.07;;;25.00;42.50;;;;;;5060723;28;20873;-58
2022/05/10 13:12:24;;;;;;;6.30;4.70;;;25.10;43.90;;;;;;5076772;28;20908;-59
2022/05/10 13:14:53;;;;;;;4.17;3.67;;;25.30;42.70;;;;;;5076598;28;20961;-59
2022/05/10 13:17:29;;;;;;;5.57;4.03;;;25.30;42.80;;;;;;5065243;28;20478;-59
2022/05/10 13:19:57;;;;;;;5.07;4.67;;;25.30;42.90;;;;;;5080756;28;20423;-57